createdAt,value
2023-12-14T00:05:23.039Z,19.60
2023-12-14T00:15:24.552Z,19.50
2023-12-14T00:25:26.044Z,19.50
2023-12-14T00:35:27.468Z,19.30
2023-12-14T00:45:28.893Z,19.40
2023-12-14T00:55:30.407Z,19.10
2023-12-14T01:05:31.943Z,19.40
2023-12-14T01:15:33.436Z,19.30
2023-12-14T01:25:34.959Z,19.30
2023-12-14T01:35:36.417Z,19.30
2023-12-14T01:45:37.907Z,18.90
2023-12-14T01:55:39.352Z,19.20
2023-12-14T02:05:40.833Z,19.00
2023-12-14T02:15:42.330Z,19.10
2023-12-14T02:25:43.806Z,19.50
2023-12-14T02:35:45.266Z,19.10
2023-12-14T02:45:46.739Z,19.00
2023-12-14T02:55:48.232Z,19.10
2023-12-14T03:05:49.787Z,19.00
2023-12-14T03:15:51.250Z,18.90
2023-12-14T03:25:52.705Z,18.90
2023-12-14T03:35:54.199Z,18.90
2023-12-14T03:45:55.629Z,18.80
2023-12-14T03:55:57.080Z,18.80
2023-12-14T04:05:58.588Z,18.80
2023-12-14T04:16:00.098Z,18.70
2023-12-14T04:26:01.672Z,18.50
2023-12-14T04:36:03.135Z,18.70
2023-12-14T04:46:04.673Z,18.60
2023-12-14T04:56:06.263Z,18.60
2023-12-14T05:06:07.729Z,17.90
2023-12-14T05:16:09.164Z,18.50
2023-12-14T05:26:10.736Z,18.60
2023-12-14T05:36:12.400Z,18.50
2023-12-14T05:46:13.977Z,18.50
2023-12-14T05:56:15.505Z,18.50
2023-12-14T06:06:17.161Z,18.40
2023-12-14T06:16:18.718Z,18.50
2023-12-14T06:26:20.176Z,18.70
2023-12-14T06:36:21.702Z,18.90
2023-12-14T06:46:23.183Z,19.60
2023-12-14T06:56:24.641Z,19.90
2023-12-14T07:06:26.108Z,19.90
2023-12-14T07:16:27.556Z,20.70
2023-12-14T07:26:29.120Z,22.20
2023-12-14T07:42:50.497Z,19.60
2023-12-14T07:52:52.097Z,21.60
2023-12-14T08:02:53.574Z,22.30
2023-12-14T08:12:55.047Z,22.30
2023-12-14T08:22:56.612Z,23.90
2023-12-14T08:32:58.119Z,22.30
2023-12-14T08:42:59.588Z,22.20
2023-12-14T08:53:01.188Z,22.20
2023-12-14T09:03:02.879Z,22.10
2023-12-14T09:13:04.464Z,22.20
2023-12-14T09:23:06.010Z,22.30
2023-12-14T09:33:07.623Z,22.30
2023-12-14T09:43:09.190Z,22.20
2023-12-14T09:53:10.752Z,22.30
2023-12-14T10:03:12.321Z,22.40
2023-12-14T10:13:16.875Z,22.40
2023-12-14T10:23:22.183Z,22.40
2023-12-14T10:33:23.835Z,22.40
2023-12-14T10:43:47.309Z,22.90
2023-12-14T10:53:47.016Z,22.50
2023-12-14T11:21:37.403Z,22.50
2023-12-14T11:31:38.974Z,22.50
2023-12-14T11:41:43.838Z,22.40
2023-12-14T11:51:45.323Z,23.80
2023-12-14T12:01:46.810Z,22.40
2023-12-14T12:11:48.485Z,22.50
2023-12-14T12:21:49.973Z,22.50
2023-12-14T12:31:51.501Z,22.60
2023-12-14T12:41:53.118Z,22.50
2023-12-14T12:51:57.028Z,22.60
2023-12-14T13:01:58.789Z,22.40
2023-12-14T13:22:39.854Z,23.00
2023-12-14T13:32:51.243Z,22.50
2023-12-14T13:42:59.997Z,22.50
2023-12-14T14:02:32.878Z,23.70
2023-12-14T14:12:44.831Z,21.80
2023-12-14T14:22:46.339Z,22.30
2023-12-14T14:32:47.880Z,22.50
2023-12-14T14:42:49.359Z,21.90
2023-12-14T14:52:50.845Z,22.70
2023-12-14T15:02:52.320Z,22.80
2023-12-14T15:12:53.801Z,22.70
2023-12-14T15:22:55.271Z,22.70
2023-12-14T15:32:56.763Z,22.70
2023-12-14T15:42:58.277Z,22.70
2023-12-14T15:52:59.798Z,22.70
2023-12-14T16:03:01.363Z,22.70
2023-12-14T16:13:02.917Z,22.70
2023-12-14T16:23:04.379Z,22.70
2023-12-14T16:33:05.946Z,22.70
2023-12-14T16:43:07.462Z,22.70
2023-12-14T16:53:11.278Z,22.70
2023-12-14T17:03:13.245Z,22.80
2023-12-14T17:13:14.845Z,23.00
2023-12-14T17:23:16.363Z,23.10
2023-12-14T17:33:18.029Z,23.10
2023-12-14T17:43:19.575Z,23.10
2023-12-14T17:53:21.071Z,23.10
2023-12-14T18:03:22.545Z,23.10
2023-12-14T18:13:24.036Z,23.00
2023-12-14T18:23:25.598Z,23.00
2023-12-14T18:33:27.137Z,23.10
2023-12-14T18:43:28.588Z,23.10
2023-12-14T18:53:30.161Z,23.20
2023-12-14T19:03:31.689Z,23.10
2023-12-14T19:13:33.206Z,23.20
2023-12-14T19:23:34.668Z,21.40
2023-12-14T19:33:36.161Z,21.10
2023-12-14T19:43:37.630Z,21.00
2023-12-14T19:53:39.126Z,20.90
2023-12-14T20:03:40.592Z,20.80
2023-12-14T20:13:42.079Z,20.60
2023-12-14T20:23:43.540Z,20.60
2023-12-14T20:33:45.017Z,20.50
2023-12-14T20:43:46.484Z,20.40
2023-12-14T20:53:47.957Z,20.40
2023-12-14T21:03:49.461Z,20.30
2023-12-14T21:13:51.017Z,20.30
2023-12-14T21:23:52.551Z,20.20
2023-12-14T21:33:54.120Z,20.20
2023-12-14T21:43:55.659Z,19.60
2023-12-14T21:53:57.143Z,20.00
2023-12-14T22:03:58.589Z,20.00
2023-12-14T22:14:00.093Z,19.90
2023-12-14T22:24:01.567Z,19.90
2023-12-14T22:34:03.049Z,19.80
2023-12-14T22:44:04.590Z,19.70
2023-12-14T22:54:06.127Z,19.60
2023-12-14T23:04:07.631Z,19.60
2023-12-14T23:14:09.081Z,19.50
2023-12-14T23:24:10.549Z,19.50
2023-12-14T23:34:12.072Z,19.50
2023-12-14T23:44:13.660Z,19.40
2023-12-14T23:54:15.156Z,19.40
